航空気象通報

ウインドサーファーのための航空気象通報による風予報です。

4/30-5/1の航空気象通報(国内、海外)

2011年04月30日 22時40分59秒 | TAF

羽田空港
TAF RJTT 300837Z 3009/0112 21022KT 9999 FEW030
      TEMPO 3009/3018 21024G34KT
      TEMPO 0100/0109 19024G34KT
日本時間30日18時-1日21時:210度から22ノットの風
但し、30日18時-1日03時の間:一時、210度から24ノット、突風34ノット
但し、1日09-18時の間:一時、190度から24ノット、突風34ノット

富士山静岡空港
TAF RJNS 300840Z 3009/0112 26008KT 9999 FEW015 SCT080
      TEMPO 3016/3021 4000 BR FEW006 BKN009 BKN015
      TEMPO 0106/0109 3000 SHRA FEW005 BKN009
      TEMPO 0109/0112 4000 -SHRA BR FEW005 BKN007
日本時間30日18時-1日21時:260度から8ノットの風

但し、1日01-06時の間:一時、
但し、1日15-18時の間:一時、
但し、1日18-21時の間:一時、

福岡空港
TAF RJFF 300837Z 3009/0112 16017KT 8000 -SHRA FEW010 BKN020 BKN030
      TEMPO 3010/3015 3000 SHRA BR
      TEMPO 3015/3018 17022G35KT 3000 SHRA BR
      TEMPO 3018/3024 17022G35KT
      BECMG 0100/0103 28012KT
      TEMPO 0100/0106 28015G25KT
日本時間30日18時-1日09時:160度から17ノットの風
但し、1日00-09時の間:一時、170度から22ノット、突風35ノット
1日09-12時:風が変化
12-21時:280度から12ノットの風
但し、1日09-15時の間:一時、280度から15ノット、突風25ノット

那覇空港
TAF ROAH 300854Z 3009/0112 17018KT 8000 FEW010 SCT030
日本時間30日18時-1日21時:170度から18ノットの風

マウイのカフルイ空港
TAF PHOG 301127Z 3012/0112 11005KT P6SM FEW050
     FM302100 06014G21KT P6SM FEW030 SCT060
     FM010400 07010KT P6SM FEW060
ハワイ時間30日02-11時:110度から5ノットの風
11-18時:060度から14ノット、突風21ノット
18時-1日02時:070度から10ノットの風

サイパン空港
TAF PGSN 301128Z 3012/0112 07016G24KT P6SM VCSH SCT020 SCT040
マリアナ時間30日22時-1日22時:070度から16ノット、突風24ノット

コメント

4/29-4/30の航空気象通報(国内、海外)

2011年04月29日 23時28分27秒 | TAF

羽田空港
TAF AMD RJTT 291305Z 2913/3012 07010KT 9999 FEW030
      BECMG 2913/2915 36008KT
      BECMG 2921/2924 12006KT
      BECMG 3000/3003 18018KT
      TEMPO 3000/3003 20020G30KT
      TEMPO 3003/3012 21030G40KT
日本時間29日18-22時:070度から10ノットの風
22-24時:風が変化
30日00-06時:360度から8ノットの風
06-09時:風が変化
09時:120度から6ノットの風
09-12時:風が変化
12-21時:180度から18ノットの風
但し、09-12時の間:一時、200度から20ノット、突風30ノット
但し、12-21時の間:一時、210度から30ノット、突風40ノット

富士山静岡空港
TAF RJNS 290839Z 2909/3012 30015KT 9999 FEW030
      TEMPO 2909/2912 30018G28KT
      BECMG 2921/2924 24012KT
日本時間29日18時-30日06時:300度から15ノットの風
但し、29日18-21時の間:一時、300度から18ノット、突風28ノット
30日06-09時:風が変化
09-21時:240度から12ノットの風

福岡空港
TAF RJFF 290836Z 2909/3012 34007KT 9999 FEW040
      BECMG 2909/2911 16007KT
      BECMG 2915/2917 16020KT
      BECMG 3000/3003 17020G30KT
日本時間29日18時:340度から7ノットの風
18-20時:風が変化
20-24時:160度から7ノットの風
30日00-02時:風が変化
02-09時:160度から20ノットの風
09-12時:風が変化
12-21時:170度から20ノット、突風30ノット

那覇空港
TAF ROAH 290853Z 2909/3012 15012KT 9999 FEW015
日本時間29日18時-30日21時:150度から12ノットの風

マウイのカフルイ空港
TAF PHOG 291132Z 2912/3012 05007KT P6SM SCT050
     FM292000 05015G22KT P6SM FEW035 SCT060
     FM300900 06009KT P6SM FEW050
ハワイ時間29日02-10時:050度から7ノットの風
10-23時:050度から15ノット、突風22ノット
23時-30日02時:060度から9ノットの風

サイパン空港
TAF PGSN 291131Z 2912/3012 07016KT P6SM VCSH SCT020 SCT040
マリアナ時間29日22時-30日22時:070度から16ノットの風

コメント

4/28-4/29の航空気象通報(国内、海外)

2011年04月28日 21時49分08秒 | TAF

羽田空港
TAF RJTT 280839Z 2809/2912 36016KT 9999 FEW030 SCT060
      BECMG 2900/2903 14008KT
日本時間28日18時-29日09時:360度から16ノットの風
09-12時:風が変化
12-21時:350度から10ノットの風

富士山静岡空港
TAF RJNS 280842Z 2809/2912 27016KT 9999 FEW030
      TEMPO 2809/2811 27018G28KT
日本時間28日18時-29日21時:270度から16ノットの風
但し、28日18-20時の間:一時、270度から18ノット、突風28ノット

福岡空港
TAF RJFF 280844Z 2809/2912 29008KT 9999 FEW030
      BECMG 2810/2812 17006KT
      BECMG 2903/2906 29006KT
      BECMG 2909/2912 16006KT
日本時間28日18-19時:290度から8ノットの風
19-21時:風が変化
21時-29日12時:170度から6ノットの風
12-15時:風が変化
15-18時:290度から6ノットの風
18-21時:風が変化
21時:160度から6ノットの風

那覇空港
TAF ROAH 280842Z 2809/2912 04010KT 9999 FEW030
      BECMG 2903/2906 10010KT
日本時間28日18時-29日12時:040度から10ノットの風
12-15時:風が変化
15-21時:100度から10ノットの風

マウイのカフルイ空港
TAF PHOG 281134Z 2812/2912 05010KT P6SM SCT045
     FM281800 05010G18KT P6SM SCT045
     FM282100 05018G28KT P6SM SCT050
     FM290400 05010G18KT P6SM SCT050
     FM290900 05008KT P6SM SCT050
ハワイ時間28日02-08時:050度から10ノットの風
08-11時:050度から10ノット、突風18ノット
11-18時:050度から18ノット、突風28ノット
18-23時:050度から10ノット、突風18ノット
23時-29日02時:050度から8ノットの風

サイパン空港
TAF PGSN 281122Z 2812/2912 08014KT P6SM VCSH SCT019
マリアナ時間28日22時-29日22時:080度から14ノットの風

コメント

4/27-4/28の航空気象通報(国内、海外)

2011年04月27日 23時47分59秒 | TAF

羽田空港
TAF AMD RJTT 271338Z 2713/2812 18020G30KT 8000 FEW010 BKN012
      TEMPO 2713/2715 19030G40KT 4000 SHRA BR
      TEMPO 2718/2721 20030G40KT 1500 +SHRA BR FEW005 BKN008 BKN015
      TEMPO 2803/2806 22030G40KT
      BECMG 2809/2812 35010KT
日本時間27日18時-28日18時:180度から20ノット、突風30ノット
但し、27日22-24時の間:一時、190度から30ノット、突風40ノット
但し、28日03-06時の間:一時、200度から30ノット、突風40ノット
但し、28日12-15時の間:一時、220度から30ノット、突風40ノット
18-21時:風が変化
21時:350度から10ノットの風

但し、27日22-24時の間:一時、
但し、28日03-06時の間:一時、

富士山静岡空港
TAF RJNS 270847Z 2709/2812 21016KT 6000 -SHRA FEW006 BKN012
      TEMPO 2709/2711 22020G30KT
      TEMPO 2711/2715 22020G30KT 3000 SHRA BR FEW003 BKN008
      TEMPO 2715/2718 22020G30KT 2000 TSRA BR FEW003 BKN005 FEW020CB
      BECMG 2718/2721 28016KT
      TEMPO 2800/2809 28020G30KT
日本時間27日18時-28日03時:210度から16ノットの風
但し、27日18時-28日03時の間:一時、220度から20ノット、突風30ノット
03-06時:風が変化
06-21時:280度から16ノットの風
但し、28日09-18時の間:一時、280度から20ノット、突風30ノット

但し、28日00-03時の間:一時、

福岡空港
TAF RJFF 270842Z 2709/2812 17011KT 9999 FEW035 SCT045
      BECMG 2715/2717 27010KT
      TEMPO 2800/2809 28015G25KT
      BECMG 2809/2812 17005KT
日本時間27日18-24時:170度から11ノットの風
28日00-02時:風が変化
02-18時:270度から10ノットの風
18-21時:風が変化
21時:170度から5ノットの風

那覇空港
TAF ROAH 270843Z 2709/2812 22010KT 9999 FEW020
      BECMG 2713/2715 36011KT
日本時間27日18-22時:220度から10ノットの風
22-24時:風が変化
28日00-21時:360度から11ノットの風

マウイのカフルイ空港
TAF PHOG 271122Z 2712/2812 05010KT P6SM SCT250
     FM271800 05010G18KT P6SM FEW035 SCT050
     FM272100 05018G25KT P6SM FEW035 SCT050
     FM280500 05012G20KT P6SM SCT050
     FM281000 05010KT P6SM SCT050
ハワイ時間27日02-08時:050度から10ノットの風
08-11時:050度から10ノット、突風18ノット
11-19時:050度から18ノット、突風25ノット
19-24時:050度から12ノット、突風20ノット
28日00-02時:050度から10ノットの風

サイパン空港
TAF PGSN 271120Z 2712/2812 07012KT P6SM VCSH SCT022
マリアナ時間27日22時-28日22時:070度から12ノットの風

コメント

4/26-4/27の航空気象通報(国内、海外)

2011年04月26日 22時55分38秒 | TAF

羽田空港
TAF RJTT 260838Z 2609/2712 20020G30KT 9999 FEW030
      TEMPO 2700/2706 20030G40KT
日本時間26日18時-27日21時:200度から20ノット、突風30ノット
但し、27日09-15時の間:一時、200度から30ノット、突風40ノット

富士山静岡空港
TAF RJNS 260841Z 2609/2712 26008KT 9999 FEW020 BKN040
      TEMPO 2615/2621 3000 BR BKN005 BKN009
      TEMPO 2709/2712 4000 SHRA BR FEW005 BKN009
日本時間26日18時-27日21時:260度から8ノットの風

但し、26日18-21時の間:一時、

福岡空港
TAF RJFF 260842Z 2609/2712 17015KT 9999 FEW030
      TEMPO 2609/2611 18015G25KT
      BECMG 2700/2703 28010KT
      TEMPO 2700/2703 3000 TSRA FEW008 SCT015 FEW020CB BKN025
日本時間26日18時-27日09時:170度から15ノットの風
但し、26日18-20時の間:一時、180度から15ノット、突風25ノット
27日09-15時:風が変化
15-21時:280度から10ノットの風

但し、27日09-12時の間:一時、

那覇空港
TAF AMD ROAH 261212Z 2612/2712 15009KT 9999 FEW008 SCT010 BKN015
      TEMPO 2621/2624 4000 SHRA SCT008 BKN010 FEW020CB
日本時間26日21時-27日21時:150度から9ノットの風

但し、27日06-09時の間:一時、

マウイのカフルイ空港
TAF PHOG 261120Z 2612/2712 12005KT P6SM FEW050
     FM262000 06015G22KT P6SM FEW050
ハワイ時間26日02-10時:120度から5ノットの風
10時-27日02時:060度から15ノット、突風22ノット

サイパン空港
TAF PGSN 261130Z 2612/2712 06014KT P6SM VCSH SCT017 BKN100
マリアナ時間26日22時-27日22時:060度から14ノットの風

コメント